Time;durP1;ratioP1;P1;durP2;ratioP2;P2;SDS_P1;SDS_P2;PMS_P1;PMS_P2;Temp;Humidity;BMP_temperature;BMP_pressure;BME280_temperature;BME280_humidity;BME280_pressure;Samples;Min_cycle;Max_cycle;Signal;HPM_P1;HPM_P2
2022/01/10 00:00:15;;;;;;;12.52;6.40;;;8.10;68.50;;;;;;6285916;28;20105;-78
2022/01/10 00:03:16;;;;;;;11.85;6.18;;;8.10;68.40;;;;;;6320952;28;20040;-78
2022/01/10 00:06:17;;;;;;;12.70;6.30;;;8.10;68.40;;;;;;6284349;28;20020;-78
2022/01/10 00:09:19;;;;;;;12.65;6.20;;;8.20;68.60;;;;;;6286100;28;20166;-80
2022/01/10 00:12:20;;;;;;;10.63;5.50;;;8.20;68.50;;;;;;6261100;28;20653;-79
2022/01/10 00:15:20;;;;;;;13.55;6.15;;;8.20;68.40;;;;;;6296476;28;20029;-78
2022/01/10 00:18:22;;;;;;;13.52;6.50;;;8.20;68.30;;;;;;6277701;28;20028;-80
2022/01/10 00:21:23;;;;;;;7.10;4.70;;;8.20;68.30;;;;;;6243984;28;20473;-78
2022/01/10 00:24:24;;;;;;;8.93;4.68;;;8.20;68.30;;;;;;6303274;28;20108;-80
2022/01/10 00:27:25;;;;;;;11.05;5.68;;;8.20;68.30;;;;;;6302022;28;20016;-79
2022/01/10 00:30:26;;;;;;;8.50;4.15;;;8.20;68.30;;;;;;6319889;28;20012;-78
2022/01/10 00:33:27;;;;;;;7.63;4.03;;;8.20;68.30;;;;;;6285519;28;20123;-79
2022/01/10 00:36:28;;;;;;;7.10;3.92;;;8.10;68.20;;;;;;6301540;28;20024;-80
2022/01/10 00:39:29;;;;;;;7.30;4.32;;;8.20;68.30;;;;;;6275656;28;20040;-78
2022/01/10 00:42:31;;;;;;;7.45;4.05;;;8.20;68.30;;;;;;6306974;28;20024;-79
2022/01/10 00:45:32;;;;;;;9.02;4.88;;;8.20;68.30;;;;;;6319193;28;20061;-78
2022/01/10 00:48:33;;;;;;;10.40;5.57;;;8.50;68.50;;;;;;6284592;28;20051;-80
2022/01/10 00:51:35;;;;;;;8.75;4.13;;;8.20;68.30;;;;;;6319366;28;20020;-78
2022/01/10 00:54:36;;;;;;;8.80;4.82;;;8.30;68.30;;;;;;6318156;28;20024;-79
2022/01/10 00:57:37;;;;;;;10.93;5.07;;;8.30;68.20;;;;;;6301283;28;20056;-78
2022/01/10 01:00:38;;;;;;;11.77;5.70;;;8.30;68.10;;;;;;6318960;28;20032;-80
2022/01/10 01:03:39;;;;;;;14.25;5.63;;;8.30;68.10;;;;;;6284379;28;20118;-78
2022/01/10 01:06:40;;;;;;;13.70;6.35;;;8.30;68.10;;;;;;6284673;28;20430;-77
2022/01/10 01:09:46;;;;;;;12.23;6.22;;;8.30;68.20;;;;;;6300287;28;20502;-81
2022/01/10 01:12:54;;;;;;;12.63;7.03;;;8.30;68.20;;;;;;6300731;28;20115;-79
2022/01/10 01:25:32;;;;;;;15.05;6.20;;;8.30;68.50;;;;;;6310454;28;20457;-78
2022/01/10 01:28:33;;;;;;;14.77;7.00;;;8.30;68.50;;;;;;6308294;28;20526;-79
2022/01/10 01:31:37;;;;;;;14.63;6.63;;;8.30;68.50;;;;;;6292190;28;20029;-78
2022/01/10 01:34:38;;;;;;;14.45;7.07;;;8.30;68.50;;;;;;6292085;28;20036;-80
2022/01/10 01:37:39;;;;;;;13.10;6.45;;;8.30;68.50;;;;;;6294350;28;20031;-77
2022/01/10 01:40:47;;;;;;;14.15;7.45;;;8.30;68.50;;;;;;6300133;28;20039;-79
2022/01/10 01:43:50;;;;;;;14.30;7.93;;;8.30;68.50;;;;;;6282951;28;20032;-78
2022/01/10 01:46:52;;;;;;;12.95;7.65;;;8.40;68.70;;;;;;6258687;28;20107;-78
2022/01/10 01:49:53;;;;;;;16.75;7.40;;;8.40;68.50;;;;;;6293722;28;20402;-79
2022/01/10 01:52:55;;;;;;;17.20;8.32;;;8.40;68.50;;;;;;6275998;28;20108;-78
2022/01/10 01:55:57;;;;;;;16.83;7.72;;;8.40;68.60;;;;;;6314214;28;20042;-77
2022/01/10 01:58:59;;;;;;;18.13;7.97;;;8.40;68.50;;;;;;6300360;28;20035;-78
2022/01/10 02:02:00;;;;;;;16.65;8.38;;;8.40;68.50;;;;;;6298909;28;20152;-77
2022/01/10 02:05:01;;;;;;;14.95;7.38;;;8.40;68.60;;;;;;6283279;28;20082;-79
2022/01/10 02:08:04;;;;;;;14.50;7.88;;;8.40;68.50;;;;;;6299252;28;20101;-79
2022/01/10 02:11:10;;;;;;;16.38;7.93;;;8.40;68.50;;;;;;6300736;28;20024;-78
2022/01/10 02:14:14;;;;;;;14.30;7.57;;;8.40;68.50;;;;;;6320171;28;20600;-79
2022/01/10 02:17:22;;;;;;;16.23;7.80;;;8.40;68.40;;;;;;6300016;28;20040;-77
2022/01/10 02:20:32;;;;;;;16.48;7.38;;;8.40;68.30;;;;;;6299630;28;20181;-79
2022/01/10 02:23:34;;;;;;;17.92;7.50;;;8.40;68.20;;;;;;6299888;28;20032;-78
2022/01/10 02:26:56;;;;;;;17.63;7.68;;;8.40;68.40;;;;;;6299911;28;20028;-79
2022/01/10 02:29:57;;;;;;;22.05;7.97;;;8.40;68.40;;;;;;6300350;28;20536;-79
2022/01/10 02:33:00;;;;;;;13.88;7.68;;;8.40;68.30;;;;;;6304829;28;20063;-78
2022/01/10 02:36:15;;;;;;;20.52;8.77;;;8.40;68.20;;;;;;6305025;28;20059;-78
2022/01/10 02:39:19;;;;;;;22.13;9.55;;;8.40;68.20;;;;;;6303145;28;20036;-80
2022/01/10 02:42:21;;;;;;;23.05;10.95;;;8.40;68.20;;;;;;6279344;28;20024;-80
2022/01/10 02:45:22;;;;;;;20.75;9.60;;;8.30;68.30;;;;;;6279632;28;20031;-79
2022/01/10 02:48:24;;;;;;;18.10;8.85;;;8.40;68.50;;;;;;6279407;28;20085;-79
2022/01/10 02:51:25;;;;;;;16.58;7.82;;;8.30;68.40;;;;;;6297110;28;20082;-78
2022/01/10 02:54:26;;;;;;;16.02;7.85;;;8.30;68.30;;;;;;6287577;28;20032;-78
2022/01/10 02:57:30;;;;;;;19.60;7.97;;;8.30;68.30;;;;;;6303887;28;20051;-77
2022/01/10 03:00:31;;;;;;;17.33;8.38;;;8.30;68.30;;;;;;6303747;28;20028;-77
2022/01/10 03:03:33;;;;;;;20.70;8.70;;;8.30;68.30;;;;;;6321890;28;20456;-78
2022/01/10 03:06:34;;;;;;;19.77;9.20;;;8.20;68.30;;;;;;6321817;28;20685;-79
2022/01/10 03:09:36;;;;;;;18.10;7.53;;;8.20;68.30;;;;;;6278113;28;20025;-77
2022/01/10 03:12:39;;;;;;;22.45;9.23;;;8.20;68.30;;;;;;6280332;28;20033;-80
2022/01/10 03:15:40;;;;;;;18.95;8.30;;;8.10;68.30;;;;;;6272065;28;20069;-78
2022/01/10 03:18:41;;;;;;;18.45;8.05;;;8.10;68.60;;;;;;6303489;28;20028;-79
2022/01/10 03:21:43;;;;;;;17.27;8.55;;;8.10;68.60;;;;;;6317818;28;20033;-79
2022/01/10 03:24:45;;;;;;;17.17;8.48;;;8.10;68.60;;;;;;6283114;28;20501;-78
2022/01/10 03:27:46;;;;;;;26.10;8.57;;;8.10;68.70;;;;;;6278377;28;20032;-78
2022/01/10 03:30:55;;;;;;;18.23;9.02;;;8.10;68.80;;;;;;6261617;28;20568;-77
2022/01/10 03:34:00;;;;;;;20.35;9.45;;;8.10;68.80;;;;;;6277469;28;20529;-78
2022/01/10 03:37:04;;;;;;;17.92;8.10;;;8.10;68.70;;;;;;6278735;28;20081;-77
2022/01/10 03:40:06;;;;;;;18.38;9.43;;;8.10;69.50;;;;;;6300170;28;20115;-78
2022/01/10 03:43:09;;;;;;;18.10;8.40;;;8.10;68.80;;;;;;6302648;28;20024;-79
2022/01/10 03:46:11;;;;;;;17.52;9.07;;;8.10;68.70;;;;;;6302529;28;20017;-79
2022/01/10 03:49:12;;;;;;;19.38;9.57;;;8.10;68.50;;;;;;6303410;28;20024;-79
2022/01/10 03:52:13;;;;;;;19.90;8.73;;;8.10;68.30;;;;;;6320096;28;20043;-79
2022/01/10 03:55:15;;;;;;;20.70;9.73;;;8.00;68.20;;;;;;6302559;28;20040;-77
2022/01/10 03:58:17;;;;;;;19.58;9.93;;;7.90;68.30;;;;;;6302520;28;20445;-77
2022/01/10 04:01:18;;;;;;;23.00;10.80;;;7.90;68.50;;;;;;6302129;28;20042;-77
2022/01/10 04:04:23;;;;;;;17.35;8.40;;;7.90;68.60;;;;;;6302002;28;20073;-78
2022/01/10 04:07:25;;;;;;;20.23;8.40;;;7.90;68.70;;;;;;6301678;28;20024;-79
2022/01/10 04:10:26;;;;;;;23.50;9.55;;;7.80;68.70;;;;;;6285457;28;20028;-79
2022/01/10 04:13:27;;;;;;;20.63;10.07;;;7.80;68.70;;;;;;6302016;28;20036;-79
2022/01/10 04:16:28;;;;;;;16.25;8.35;;;7.80;68.90;;;;;;6285304;28;20034;-79
2022/01/10 04:19:30;;;;;;;24.60;9.05;;;7.90;69.00;;;;;;6285386;28;20116;-79
2022/01/10 04:22:31;;;;;;;18.80;9.20;;;7.90;68.80;;;;;;6284907;28;20048;-79
2022/01/10 04:25:32;;;;;;;17.75;8.43;;;7.90;68.80;;;;;;6301373;28;20035;-79
2022/01/10 04:28:33;;;;;;;17.10;8.05;;;7.90;68.70;;;;;;6301683;28;20097;-78
2022/01/10 04:31:35;;;;;;;26.95;9.63;;;7.90;68.70;;;;;;6301328;28;20024;-77
2022/01/10 04:34:38;;;;;;;19.10;8.75;;;7.90;68.70;;;;;;6283935;28;20035;-78
2022/01/10 04:37:40;;;;;;;19.13;9.00;;;7.80;68.60;;;;;;6300871;28;20181;-78
2022/01/10 04:40:41;;;;;;;19.13;8.20;;;7.90;68.70;;;;;;6300896;28;20452;-78
2022/01/10 04:43:43;;;;;;;17.15;8.30;;;7.80;68.60;;;;;;6301441;28;20043;-79
2022/01/10 04:46:45;;;;;;;16.15;7.40;;;7.90;68.70;;;;;;6301464;28;20024;-80
2022/01/10 04:52:52;;;;;;;17.80;7.38;;;7.90;68.60;;;;;;6300352;28;20028;-77
2022/01/10 04:55:53;;;;;;;20.10;8.73;;;7.90;68.50;;;;;;6300440;28;20032;-77
2022/01/10 04:58:54;;;;;;;16.15;7.70;;;7.90;68.50;;;;;;6284038;28;20032;-77
2022/01/10 05:01:57;;;;;;;17.90;8.48;;;8.00;68.50;;;;;;6300940;28;20024;-78
2022/01/10 05:04:58;;;;;;;21.13;8.35;;;8.00;68.50;;;;;;6300689;28;20024;-77
2022/01/10 05:07:59;;;;;;;16.08;7.93;;;8.00;68.40;;;;;;6300029;28;20516;-77
2022/01/10 05:11:01;;;;;;;14.90;7.90;;;8.00;68.40;;;;;;6300376;28;20141;-78
2022/01/10 05:14:03;;;;;;;20.48;8.02;;;8.00;68.40;;;;;;6283769;28;20414;-78
2022/01/10 05:17:04;;;;;;;17.33;8.18;;;8.10;68.30;;;;;;6282979;28;20621;-78
2022/01/10 05:20:06;;;;;;;15.05;8.18;;;8.00;68.10;;;;;;6295280;28;20046;-77
2022/01/10 05:23:07;;;;;;;19.88;8.88;;;8.10;68.10;;;;;;6291937;28;20044;-78
2022/01/10 05:26:09;;;;;;;18.98;9.20;;;8.00;68.00;;;;;;6299770;28;20524;-78
2022/01/10 05:29:12;;;;;;;20.80;8.80;;;8.00;68.00;;;;;;6283949;28;20024;-78
2022/01/10 05:32:13;;;;;;;15.70;7.60;;;7.90;68.10;;;;;;6296752;28;20039;-78
2022/01/10 05:35:36;;;;;;;20.80;9.90;;;8.00;68.20;;;;;;6306895;28;20517;-77
2022/01/10 05:38:37;;;;;;;19.17;9.57;;;7.90;68.20;;;;;;6299600;28;20694;-78
2022/01/10 05:41:38;;;;;;;19.80;8.82;;;7.90;68.30;;;;;;6317552;28;20024;-77
2022/01/10 05:44:39;;;;;;;18.05;8.48;;;7.90;68.30;;;;;;6301644;28;20020;-78
2022/01/10 05:47:42;;;;;;;17.17;7.80;;;7.90;68.30;;;;;;6285079;28;20035;-78
2022/01/10 05:50:44;;;;;;;21.98;10.15;;;7.90;68.40;;;;;;6284452;28;20119;-78
2022/01/10 05:53:47;;;;;;;21.13;9.82;;;7.90;68.50;;;;;;6300125;28;20031;-78
2022/01/10 05:56:48;;;;;;;22.35;8.52;;;7.90;69.40;;;;;;6274848;28;20123;-78
2022/01/10 05:59:49;;;;;;;17.58;8.68;;;7.90;68.60;;;;;;6275266;28;20056;-78
2022/01/10 06:02:51;;;;;;;19.15;9.40;;;7.90;68.70;;;;;;6259061;28;20086;-78
2022/01/10 06:06:03;;;;;;;19.17;9.07;;;7.90;68.60;;;;;;6279844;28;20684;-78
2022/01/10 06:09:04;;;;;;;18.85;8.10;;;7.90;68.60;;;;;;6288601;28;20035;-79
2022/01/10 06:12:08;;;;;;;19.35;8.93;;;7.90;68.50;;;;;;6304968;28;20035;-78
2022/01/10 06:15:09;;;;;;;18.52;8.98;;;7.90;68.50;;;;;;6305387;28;20070;-78
2022/01/10 06:18:15;;;;;;;18.77;8.23;;;7.90;68.50;;;;;;6289067;28;20567;-78
2022/01/10 06:21:17;;;;;;;20.20;8.52;;;7.90;68.50;;;;;;6305506;28;20101;-77
2022/01/10 06:24:18;;;;;;;19.60;8.52;;;7.90;68.60;;;;;;6288700;28;20030;-78
2022/01/10 06:27:20;;;;;;;16.48;7.30;;;7.90;68.60;;;;;;6288349;28;20081;-78
2022/01/10 06:30:21;;;;;;;13.57;6.45;;;7.90;68.60;;;;;;6321794;28;20015;-77
2022/01/10 06:33:22;;;;;;;13.13;6.45;;;7.90;68.60;;;;;;6304484;28;20164;-77
2022/01/10 06:36:23;;;;;;;9.60;5.35;;;7.90;68.50;;;;;;6286755;28;20056;-80
2022/01/10 06:39:27;;;;;;;11.18;5.18;;;7.80;68.50;;;;;;6287125;28;20059;-78
2022/01/10 06:42:28;;;;;;;10.77;4.50;;;7.90;68.50;;;;;;6322036;28;20038;-78
2022/01/10 06:45:29;;;;;;;10.63;5.18;;;7.90;68.50;;;;;;6322168;28;20624;-79
2022/01/10 06:48:32;;;;;;;12.20;4.22;;;7.90;68.50;;;;;;6287320;28;20094;-76
2022/01/10 06:51:34;;;;;;;10.85;4.95;;;7.90;68.50;;;;;;6296679;28;20052;-75
2022/01/10 06:54:35;;;;;;;11.18;4.72;;;7.90;68.40;;;;;;6293135;28;20031;-75
2022/01/10 06:57:37;;;;;;;8.07;4.30;;;7.90;68.30;;;;;;6281760;28;20111;-75
2022/01/10 07:00:40;;;;;;;15.50;6.45;;;8.00;68.20;;;;;;6287711;28;20537;-75
2022/01/10 07:03:42;;;;;;;20.92;5.55;;;7.90;68.10;;;;;;6296894;28;20484;-75
2022/01/10 07:06:54;;;;;;;11.57;5.28;;;8.00;68.20;;;;;;6293931;28;20024;-75
2022/01/10 07:09:58;;;;;;;6.85;4.20;;;8.00;68.00;;;;;;6279114;28;20548;-75
2022/01/10 07:12:59;;;;;;;9.73;4.93;;;8.00;68.00;;;;;;6278448;28;20039;-76
2022/01/10 07:16:01;;;;;;;11.60;5.05;;;8.00;68.00;;;;;;6277993;28;20028;-76
2022/01/10 07:19:02;;;;;;;8.73;4.88;;;8.00;68.00;;;;;;6278654;28;20024;-77
2022/01/10 07:22:09;;;;;;;8.23;4.78;;;8.00;68.00;;;;;;6283607;28;20036;-75
2022/01/10 07:25:10;;;;;;;16.05;6.03;;;8.00;67.90;;;;;;6313222;28;20183;-76
2022/01/10 07:28:11;;;;;;;12.27;6.20;;;8.00;67.80;;;;;;6295902;28;20059;-75
2022/01/10 07:31:12;;;;;;;22.90;6.22;;;8.00;67.80;;;;;;6275668;28;20028;-76
2022/01/10 07:34:15;;;;;;;12.95;5.97;;;8.00;67.80;;;;;;6269458;28;20378;-76
2022/01/10 07:37:18;;;;;;;19.25;6.18;;;8.00;67.80;;;;;;6260181;28;20025;-75
2022/01/10 07:40:19;;;;;;;13.63;5.90;;;8.00;67.70;;;;;;6319037;28;20020;-75
2022/01/10 07:43:20;;;;;;;12.40;5.57;;;8.10;67.80;;;;;;6294733;28;20192;-76
2022/01/10 07:46:25;;;;;;;15.18;6.88;;;8.10;67.80;;;;;;6260741;28;20025;-77
2022/01/10 07:49:26;;;;;;;12.85;6.35;;;8.10;67.80;;;;;;6296045;28;20698;-77
2022/01/10 07:52:29;;;;;;;16.90;7.18;;;8.10;67.60;;;;;;6320748;28;20444;-76
2022/01/10 07:55:30;;;;;;;13.63;6.47;;;8.10;68.40;;;;;;6320065;28;20032;-75
2022/01/10 07:58:32;;;;;;;13.20;5.43;;;8.10;67.40;;;;;;6302135;28;20032;-75
2022/01/10 08:01:33;;;;;;;12.10;5.03;;;8.20;67.60;;;;;;6319995;28;20028;-76
2022/01/10 08:04:34;;;;;;;11.80;5.88;;;8.10;67.40;;;;;;6319354;28;20472;-77
2022/01/10 08:07:36;;;;;;;15.90;6.45;;;8.10;67.40;;;;;;6301121;28;20072;-77
2022/01/10 08:10:37;;;;;;;16.15;6.45;;;8.10;67.40;;;;;;6319595;28;20024;-77
2022/01/10 08:13:41;;;;;;;16.55;6.57;;;8.10;67.50;;;;;;6302157;28;20577;-75
2022/01/10 08:16:42;;;;;;;14.65;6.60;;;8.10;67.50;;;;;;6285067;28;20438;-77
2022/01/10 08:19:43;;;;;;;16.38;7.32;;;8.10;67.40;;;;;;6301711;28;20027;-76
2022/01/10 08:22:44;;;;;;;15.48;6.95;;;8.10;67.40;;;;;;6301229;28;20472;-76
2022/01/10 08:25:45;;;;;;;14.68;6.65;;;8.10;67.40;;;;;;6318684;28;20062;-76
2022/01/10 08:28:46;;;;;;;13.27;5.97;;;8.20;67.30;;;;;;6285781;28;20528;-75
2022/01/10 08:31:47;;;;;;;13.90;6.60;;;8.20;67.20;;;;;;6302060;28;20528;-75
2022/01/10 08:34:48;;;;;;;12.15;5.65;;;8.30;67.30;;;;;;6301248;28;20372;-77
2022/01/10 08:37:51;;;;;;;11.18;5.85;;;8.30;67.10;;;;;;6283924;28;20115;-75
2022/01/10 08:40:52;;;;;;;12.77;5.63;;;8.40;67.00;;;;;;6295153;28;20039;-77
2022/01/10 08:43:53;;;;;;;13.25;5.32;;;8.50;66.90;;;;;;6285342;28;20024;-76
2022/01/10 08:46:54;;;;;;;21.88;5.03;;;8.60;66.90;;;;;;6306231;28;20028;-77
2022/01/10 08:49:55;;;;;;;10.95;4.88;;;8.70;66.70;;;;;;6292833;28;20024;-77
2022/01/10 08:52:56;;;;;;;19.85;8.57;;;8.80;66.40;;;;;;6312022;28;20031;-76
2022/01/10 08:55:58;;;;;;;10.63;4.38;;;8.80;66.10;;;;;;6299874;28;20040;-76
2022/01/10 08:58:59;;;;;;;11.13;4.43;;;8.90;65.90;;;;;;6301012;28;20039;-76
2022/01/10 09:02:01;;;;;;;8.48;4.15;;;8.90;65.70;;;;;;6301370;28;20039;-76
2022/01/10 09:05:03;;;;;;;7.40;3.75;;;9.00;65.80;;;;;;6318722;28;20511;-76
2022/01/10 09:08:05;;;;;;;8.88;4.43;;;9.10;65.40;;;;;;6266785;28;20020;-76
2022/01/10 09:11:06;;;;;;;8.05;3.78;;;9.20;65.20;;;;;;6300370;28;20346;-76
2022/01/10 09:14:08;;;;;;;10.30;4.65;;;9.20;64.70;;;;;;6318721;28;20028;-77
2022/01/10 09:17:09;;;;;;;9.88;4.72;;;9.30;64.70;;;;;;6300276;28;20027;-76
2022/01/10 09:20:10;;;;;;;10.13;4.20;;;9.30;64.30;;;;;;6284047;28;20656;-78
2022/01/10 09:23:12;;;;;;;8.68;4.53;;;9.30;64.30;;;;;;6276342;28;20492;-78
2022/01/10 09:26:13;;;;;;;8.65;3.88;;;9.30;64.20;;;;;;6300190;28;20513;-77
2022/01/10 09:29:15;;;;;;;6.75;3.97;;;9.40;64.30;;;;;;6318755;28;20498;-76
2022/01/10 09:32:16;;;;;;;9.40;4.50;;;9.40;64.30;;;;;;6300551;28;20028;-76
2022/01/10 09:35:17;;;;;;;9.55;4.45;;;9.60;64.50;;;;;;6297150;28;20404;-76
2022/01/10 09:38:18;;;;;;;6.93;3.95;;;9.70;64.40;;;;;;6317617;28;20129;-78
2022/01/10 09:41:20;;;;;;;10.00;4.85;;;9.80;64.20;;;;;;6282909;28;20052;-77
2022/01/10 09:44:20;;;;;;;9.52;4.07;;;9.90;64.00;;;;;;6318556;28;20456;-79
2022/01/10 09:47:21;;;;;;;6.95;3.97;;;10.00;64.00;;;;;;6300212;28;20028;-77
2022/01/10 09:50:23;;;;;;;6.53;2.95;;;10.10;63.90;;;;;;6318370;28;20044;-76
2022/01/10 09:53:24;;;;;;;8.43;2.75;;;10.10;63.60;;;;;;6300356;28;20032;-77
2022/01/10 09:56:27;;;;;;;5.28;2.65;;;10.20;62.80;;;;;;6282394;28;20647;-77
2022/01/10 09:59:30;;;;;;;8.35;3.30;;;10.30;62.10;;;;;;6282884;28;20028;-77
2022/01/10 10:02:32;;;;;;;4.55;2.45;;;10.20;61.70;;;;;;6281378;28;20028;-77
2022/01/10 10:05:34;;;;;;;6.80;3.22;;;10.20;61.30;;;;;;6294482;28;20478;-77
2022/01/10 10:08:39;;;;;;;8.30;4.50;;;10.30;61.20;;;;;;6313905;28;20073;-77
2022/01/10 10:11:47;;;;;;;4.82;2.13;;;10.40;61.10;;;;;;6296923;28;20119;-78
2022/01/10 10:14:50;;;;;;;4.78;2.30;;;10.60;61.10;;;;;;6279989;28;20031;-77
2022/01/10 10:17:51;;;;;;;9.88;5.50;;;10.70;60.30;;;;;;6309296;28;20031;-77
2022/01/10 10:20:53;;;;;;;6.85;2.60;;;10.80;59.70;;;;;;6314433;28;20040;-76
2022/01/10 10:23:55;;;;;;;3.47;2.47;;;10.80;59.30;;;;;;6316952;28;20035;-76
2022/01/10 10:26:57;;;;;;;17.67;5.55;;;10.80;59.70;;;;;;6298647;28;20059;-77
2022/01/10 10:29:58;;;;;;;7.90;3.50;;;10.70;59.20;;;;;;6316890;28;20040;-77
2022/01/10 10:33:17;;;;;;;6.50;2.90;;;10.60;58.90;;;;;;6317003;28;20120;-78
2022/01/10 10:36:18;;;;;;;9.48;3.60;;;10.60;59.10;;;;;;6282538;28;20088;-78
2022/01/10 10:39:19;;;;;;;10.38;4.88;;;10.60;59.30;;;;;;6298427;28;20040;-76
2022/01/10 10:42:22;;;;;;;12.77;4.72;;;10.70;59.30;;;;;;6316785;28;20024;-77
2022/01/10 10:45:25;;;;;;;9.52;4.68;;;10.80;59.20;;;;;;6299201;28;20035;-75
2022/01/10 10:48:27;;;;;;;9.35;4.35;;;10.90;59.30;;;;;;6317360;28;20426;-76
2022/01/10 10:51:30;;;;;;;14.05;5.95;;;11.00;59.30;;;;;;6318865;28;20020;-78
2022/01/10 10:54:34;;;;;;;9.55;5.13;;;11.10;59.20;;;;;;6320992;28;20085;-77
2022/01/10 10:57:35;;;;;;;12.75;4.88;;;11.10;59.20;;;;;;6295097;28;20477;-79
2022/01/10 11:00:37;;;;;;;11.55;4.88;;;11.20;59.10;;;;;;6278954;28;20024;-79
2022/01/10 11:03:40;;;;;;;9.05;4.72;;;11.10;58.90;;;;;;6285771;28;20318;-80
2022/01/10 11:06:41;;;;;;;7.72;3.47;;;11.10;59.00;;;;;;6322529;28;20023;-80
2022/01/10 11:09:42;;;;;;;11.27;4.65;;;11.00;59.70;;;;;;6303734;28;20102;-79
2022/01/10 11:12:50;;;;;;;9.68;4.00;;;11.00;59.30;;;;;;6286948;28;20115;-80
2022/01/10 11:15:52;;;;;;;4.55;2.42;;;11.00;59.30;;;;;;6283262;28;20103;-79
2022/01/10 11:18:55;;;;;;;7.13;3.38;;;11.00;59.30;;;;;;6311288;28;20080;-80
2022/01/10 11:22:04;;;;;;;6.03;2.75;;;11.00;59.10;;;;;;6278180;28;20440;-80
2022/01/10 11:25:17;;;;;;;3.33;2.13;;;10.90;58.60;;;;;;6284300;28;20024;-80
2022/01/10 11:28:26;;;;;;;4.57;2.67;;;10.90;58.30;;;;;;6298495;28;20086;-79
2022/01/10 11:31:28;;;;;;;3.80;2.30;;;10.80;58.10;;;;;;6321548;28;20676;-80
2022/01/10 11:34:29;;;;;;;5.28;2.05;;;10.80;58.10;;;;;;6303222;28;20108;-79
2022/01/10 11:37:32;;;;;;;4.30;2.10;;;10.70;58.00;;;;;;6302629;28;20024;-82
2022/01/10 11:40:34;;;;;;;6.55;2.40;;;10.70;57.30;;;;;;6305668;28;20433;-81
2022/01/10 11:43:41;;;;;;;5.47;2.10;;;10.70;57.10;;;;;;6333155;28;20680;-81
2022/01/10 11:46:48;;;;;;;5.60;1.83;;;10.80;57.30;;;;;;6318415;28;20036;-81
2022/01/10 11:50:09;;;;;;;3.95;1.83;;;10.80;57.10;;;;;;6318897;28;20038;-81
2022/01/10 11:53:10;;;;;;;5.43;1.95;;;10.90;56.70;;;;;;6316272;28;20062;-81
2022/01/10 11:56:30;;;;;;;4.03;2.15;;;11.00;56.70;;;;;;6300713;28;20039;-80
2022/01/10 11:59:33;;;;;;;3.00;1.77;;;11.00;56.60;;;;;;6343205;28;20045;-81
2022/01/10 12:02:37;;;;;;;3.13;1.55;;;10.90;56.40;;;;;;6321933;28;20032;-80
2022/01/10 12:05:40;;;;;;;3.35;1.40;;;10.90;56.40;;;;;;6316554;28;20028;-81
2022/01/10 12:08:42;;;;;;;2.90;1.48;;;10.80;56.00;;;;;;6314772;28;20499;-81
2022/01/10 12:11:45;;;;;;;4.78;2.30;;;10.80;55.80;;;;;;6317794;28;20024;-81
2022/01/10 12:14:49;;;;;;;2.90;1.80;;;10.70;55.70;;;;;;6308093;28;20025;-79
2022/01/10 12:17:50;;;;;;;4.53;1.35;;;10.70;55.40;;;;;;6300786;28;20021;-80
2022/01/10 12:20:54;;;;;;;4.05;1.95;;;10.70;55.50;;;;;;6309976;28;20516;-78
2022/01/10 12:23:55;;;;;;;3.78;1.30;;;10.70;55.10;;;;;;6300780;28;20034;-79
2022/01/10 12:26:57;;;;;;;5.30;1.90;;;10.70;54.80;;;;;;6303332;28;20028;-79
2022/01/10 12:29:58;;;;;;;2.00;1.30;;;10.70;54.60;;;;;;6302856;28;20561;-80
2022/01/10 12:33:03;;;;;;;2.50;1.25;;;10.70;54.40;;;;;;6281463;28;20024;-78
2022/01/10 12:36:05;;;;;;;3.97;1.58;;;10.70;54.20;;;;;;6320586;28;20042;-81
2022/01/10 12:39:17;;;;;;;3.58;1.13;;;10.70;54.10;;;;;;6288680;28;20250;-79
2022/01/10 12:42:26;;;;;;;3.45;1.45;;;10.80;54.20;;;;;;6297691;28;20024;-79
2022/01/10 12:45:35;;;;;;;1.88;1.08;;;10.90;54.30;;;;;;6280509;28;20085;-81
2022/01/10 12:48:39;;;;;;;3.10;1.63;;;10.90;54.20;;;;;;6294874;28;20016;-79
2022/01/10 12:51:47;;;;;;;2.25;1.60;;;11.00;54.20;;;;;;6302628;28;20114;-79
2022/01/10 12:54:49;;;;;;;1.52;1.00;;;11.00;54.00;;;;;;6277106;28;20036;-79
2022/01/10 12:57:52;;;;;;;1.63;1.15;;;11.00;54.00;;;;;;6300826;28;20076;-78
2022/01/10 13:00:53;;;;;;;1.85;1.00;;;11.10;54.20;;;;;;6268158;28;20097;-79
2022/01/10 13:04:00;;;;;;;1.52;1.10;;;11.20;54.20;;;;;;6277101;28;20078;-78
2022/01/10 13:07:06;;;;;;;3.30;1.58;;;11.20;53.80;;;;;;6259294;28;20029;-79
2022/01/10 13:10:11;;;;;;;3.78;1.63;;;11.20;53.70;;;;;;6294576;28;20075;-79
2022/01/10 13:13:14;;;;;;;2.03;1.27;;;11.20;53.20;;;;;;6258501;28;20036;-80
2022/01/10 13:16:29;;;;;;;3.00;1.30;;;11.20;53.30;;;;;;6275120;28;20039;-80
2022/01/10 13:19:30;;;;;;;5.40;1.48;;;11.30;53.00;;;;;;6275433;28;20119;-77
2022/01/10 13:22:42;;;;;;;4.17;1.20;;;11.30;53.70;;;;;;6269143;28;20056;-79
2022/01/10 13:25:49;;;;;;;1.30;1.02;;;11.20;52.70;;;;;;6278094;28;20025;-78
2022/01/10 13:28:50;;;;;;;1.73;0.98;;;11.30;53.00;;;;;;6292316;28;20025;-80
2022/01/10 13:31:51;;;;;;;1.50;1.27;;;11.50;52.90;;;;;;6292781;28;20089;-78
2022/01/10 13:35:07;;;;;;;3.92;1.00;;;11.50;52.30;;;;;;6280302;28;20035;-77
2022/01/10 13:38:13;;;;;;;2.42;1.35;;;11.60;52.10;;;;;;6274360;28;20032;-80
2022/01/10 13:41:14;;;;;;;3.33;1.48;;;11.70;52.00;;;;;;6291941;28;20461;-78
2022/01/10 13:44:15;;;;;;;2.63;1.15;;;11.80;51.50;;;;;;6291381;28;20089;-79
2022/01/10 13:47:17;;;;;;;2.38;1.10;;;11.80;51.00;;;;;;6292064;28;20101;-79
2022/01/10 13:50:20;;;;;;;2.72;1.02;;;11.80;51.00;;;;;;6275060;28;20036;-80
2022/01/10 13:53:29;;;;;;;2.67;1.15;;;11.80;50.30;;;;;;6292746;28;20032;-79
2022/01/10 13:56:32;;;;;;;2.05;0.90;;;11.80;50.10;;;;;;6276418;28;20036;-78
2022/01/10 13:59:33;;;;;;;7.03;1.20;;;11.70;49.70;;;;;;6266471;28;20457;-80
2022/01/10 14:02:43;;;;;;;3.75;1.20;;;11.60;49.90;;;;;;6250219;28;20025;-80
2022/01/10 14:05:44;;;;;;;2.00;0.90;;;11.50;49.90;;;;;;6267862;28;20029;-78
2022/01/10 14:08:51;;;;;;;2.58;1.00;;;11.30;49.60;;;;;;6275394;28;20129;-78
2022/01/10 14:11:54;;;;;;;5.15;1.20;;;11.30;50.00;;;;;;6293439;28;20025;-80
2022/01/10 14:14:55;;;;;;;2.75;1.10;;;11.30;50.00;;;;;;6275546;28;20720;-79
2022/01/10 14:18:01;;;;;;;3.70;0.95;;;11.20;50.10;;;;;;6292336;28;20056;-78
2022/01/10 14:21:03;;;;;;;6.45;1.20;;;11.20;50.20;;;;;;6298124;28;20040;-78
2022/01/10 14:24:05;;;;;;;6.55;1.00;;;11.20;50.10;;;;;;6300218;28;20143;-81
2022/01/10 14:27:06;;;;;;;5.72;0.90;;;11.40;50.20;;;;;;6302904;28;20063;-81
2022/01/10 14:30:08;;;;;;;2.67;1.00;;;11.50;50.20;;;;;;6305151;28;20509;-79
2022/01/10 14:33:09;;;;;;;1.17;1.08;;;11.50;49.90;;;;;;6304691;28;20468;-79
2022/01/10 14:36:11;;;;;;;1.60;1.27;;;11.60;49.70;;;;;;6322363;28;20123;-80
2022/01/10 14:39:12;;;;;;;1.95;1.05;;;11.60;50.10;;;;;;6303457;28;20035;-81
2022/01/10 14:42:13;;;;;;;4.97;0.93;;;11.60;49.60;;;;;;6304344;28;20036;-78
2022/01/10 14:45:15;;;;;;;1.20;1.10;;;11.60;49.70;;;;;;6287200;28;20537;-78
2022/01/10 14:48:16;;;;;;;13.73;1.23;;;11.60;49.80;;;;;;6322512;28;20024;-79
2022/01/10 14:51:17;;;;;;;3.65;1.63;;;11.50;49.80;;;;;;6304774;28;20024;-80
2022/01/10 14:54:18;;;;;;;3.72;1.55;;;11.50;49.60;;;;;;6323865;28;20450;-79
2022/01/10 14:57:19;;;;;;;8.43;2.25;;;11.50;49.80;;;;;;6315873;28;20032;-76
2022/01/10 15:00:20;;;;;;;2.47;1.30;;;11.50;49.80;;;;;;6312245;28;20498;-76
2022/01/10 15:03:23;;;;;;;7.15;1.70;;;11.40;50.00;;;;;;6278882;28;20024;-74
2022/01/10 15:06:25;;;;;;;3.80;1.80;;;11.40;49.90;;;;;;6286978;28;20456;-76
2022/01/10 15:09:26;;;;;;;4.60;1.38;;;11.30;50.20;;;;;;6303052;28;20091;-77
2022/01/10 15:12:27;;;;;;;8.68;3.58;;;11.30;50.50;;;;;;6320530;28;20034;-75
2022/01/10 15:15:28;;;;;;;2.58;1.50;;;11.30;50.40;;;;;;6291204;28;20364;-74
2022/01/10 15:18:29;;;;;;;2.15;1.40;;;11.20;50.20;;;;;;6294801;28;20028;-76
2022/01/10 15:21:30;;;;;;;7.50;1.92;;;11.10;50.30;;;;;;6305354;28;20131;-76
2022/01/10 15:24:32;;;;;;;1.88;1.35;;;11.10;50.60;;;;;;6277730;28;20025;-75
2022/01/10 15:27:33;;;;;;;1.98;1.10;;;11.00;50.70;;;;;;6292811;28;20029;-75
2022/01/10 15:30:34;;;;;;;3.47;1.23;;;11.00;50.90;;;;;;6295293;28;20035;-75
2022/01/10 15:33:35;;;;;;;7.00;1.65;;;10.90;51.00;;;;;;6301379;28;20337;-75
2022/01/10 15:36:36;;;;;;;2.53;1.38;;;10.90;51.10;;;;;;6302394;28;20024;-76
2022/01/10 15:39:37;;;;;;;3.08;1.50;;;10.90;51.10;;;;;;6320258;28;20028;-76
2022/01/10 15:42:38;;;;;;;4.78;1.48;;;10.80;51.20;;;;;;6301898;28;20348;-74
2022/01/10 15:45:40;;;;;;;3.75;1.70;;;10.70;51.40;;;;;;6300591;28;20059;-77
2022/01/10 15:48:41;;;;;;;4.65;1.63;;;10.60;51.80;;;;;;6287395;28;20024;-76
2022/01/10 15:51:46;;;;;;;2.22;1.45;;;10.50;52.00;;;;;;6302450;28;20080;-75
2022/01/10 15:54:48;;;;;;;2.90;1.13;;;10.50;52.10;;;;;;6302515;28;20368;-76
2022/01/10 15:57:50;;;;;;;2.10;1.50;;;10.40;52.30;;;;;;6302667;28;20122;-74
2022/01/10 16:00:55;;;;;;;4.60;1.58;;;10.40;52.40;;;;;;6320699;28;20034;-76
2022/01/10 16:03:56;;;;;;;4.68;1.45;;;10.30;52.50;;;;;;6320231;28;20024;-76